createdAt,value
2022-12-26T00:01:27.340Z,100640.34
2022-12-26T00:05:39.050Z,100644.44
2022-12-26T00:09:50.832Z,100617.88
2022-12-26T00:14:14.739Z,100637.66
2022-12-26T00:18:26.411Z,100653.91
2022-12-26T00:22:38.205Z,100650.88
2022-12-26T00:26:50.616Z,100628.78
2022-12-26T00:31:12.164Z,100642.22
2022-12-26T00:35:23.893Z,100650.63
2022-12-26T00:39:35.650Z,100656.16
2022-12-26T00:43:48.081Z,100666.28
2022-12-26T00:47:59.746Z,100657.84
2022-12-26T00:52:11.379Z,100678.44
2022-12-26T00:56:23.306Z,100659.13
2022-12-26T01:00:36.250Z,100674.50
2022-12-26T01:05:01.634Z,100650.72
2022-12-26T01:09:15.150Z,100686.50
2022-12-26T01:13:26.899Z,100692.69
2022-12-26T01:17:38.407Z,100686.06
2022-12-26T01:21:49.917Z,100693.06
2022-12-26T01:26:17.324Z,100684.47
2022-12-26T01:30:31.899Z,100697.25
2022-12-26T01:34:43.461Z,100703.22
2022-12-26T01:38:54.999Z,100681.44
2022-12-26T01:43:12.096Z,100677.03
2022-12-26T01:47:25.688Z,100691.44
2022-12-26T01:51:41.427Z,100665.69
2022-12-26T01:55:59.777Z,100676.59
2022-12-26T02:00:12.733Z,100680.16
2022-12-26T02:05:03.189Z,100680.16
2022-12-26T02:09:14.743Z,100688.66
2022-12-26T02:13:28.493Z,100686.38
2022-12-26T02:17:42.463Z,100680.63
2022-12-26T02:22:31.410Z,100684.38
2022-12-26T02:27:06.321Z,100695.06
2022-12-26T02:31:32.743Z,100682.06
2022-12-26T02:36:17.369Z,100684.13
2022-12-26T02:40:48.264Z,100682.06
2022-12-26T02:45:52.696Z,100682.66
2022-12-26T02:50:43.652Z,100676.91
2022-12-26T02:55:25.973Z,100691.97
2022-12-26T03:00:05.212Z,100705.84
2022-12-26T03:04:37.884Z,100693.75
2022-12-26T03:09:14.493Z,100681.16
2022-12-26T03:13:36.821Z,100693.28
2022-12-26T03:18:01.273Z,100683.69
2022-12-26T03:22:30.572Z,100687.44
2022-12-26T03:26:52.200Z,100676.41
2022-12-26T03:31:15.421Z,100676.22
2022-12-26T03:35:32.545Z,100677.69
2022-12-26T03:40:26.055Z,100687.19
2022-12-26T03:45:00.936Z,100696.22
2022-12-26T03:49:43.632Z,100691.91
2022-12-26T03:54:31.327Z,100701.53
2022-12-26T03:59:20.134Z,100700.03
2022-12-26T04:03:51.831Z,100706.00
2022-12-26T04:08:31.696Z,100704.59
2022-12-26T04:13:04.255Z,100725.41
2022-12-26T04:18:08.514Z,100718.38
2022-12-26T04:22:50.292Z,100721.91
2022-12-26T04:27:23.330Z,100719.44
2022-12-26T04:32:12.227Z,100734.28
2022-12-26T04:37:12.606Z,100745.41
2022-12-26T04:41:45.581Z,100747.19
2022-12-26T04:45:57.673Z,100737.13
2022-12-26T04:50:12.284Z,100737.13
2022-12-26T04:54:23.969Z,100713.66
2022-12-26T04:58:35.642Z,100731.53
2022-12-26T05:03:05.842Z,100712.63
2022-12-26T05:07:41.230Z,100703.00
2022-12-26T05:11:52.928Z,100695.63
2022-12-26T05:16:23.723Z,100690.28
2022-12-26T05:20:47.441Z,100699.28
2022-12-26T05:25:17.778Z,100699.38
2022-12-26T05:29:29.473Z,100699.19
2022-12-26T05:34:00.749Z,100700.06
2022-12-26T05:38:12.413Z,100698.84
2022-12-26T05:42:24.034Z,100707.53
2022-12-26T05:46:36.970Z,100727.16
2022-12-26T05:50:48.577Z,100719.34
2022-12-26T05:55:00.322Z,100711.53
2022-12-26T05:59:12.024Z,100688.13
2022-12-26T06:03:23.633Z,100690.31
2022-12-26T06:07:35.513Z,100688.28
2022-12-26T06:11:49.239Z,100663.63
2022-12-26T06:16:05.746Z,100682.38
2022-12-26T06:20:17.456Z,100685.28
2022-12-26T06:24:29.041Z,100678.94
2022-12-26T06:28:42.222Z,100700.31
2022-12-26T06:32:54.033Z,100699.31
2022-12-26T06:37:05.765Z,100699.75
2022-12-26T06:41:20.288Z,100690.28
2022-12-26T06:45:32.030Z,100711.88
2022-12-26T06:49:43.601Z,100727.97
2022-12-26T06:53:55.604Z,100724.47
2022-12-26T06:58:07.252Z,100732.03
2022-12-26T07:02:19.048Z,100748.44
2022-12-26T07:06:36.324Z,100732.38
2022-12-26T07:10:48.014Z,100720.69
2022-12-26T07:15:01.716Z,100721.72
2022-12-26T07:19:15.279Z,100736.34
2022-12-26T07:23:26.867Z,100718.50
2022-12-26T07:27:38.606Z,100748.34
2022-12-26T07:31:50.399Z,100748.34
2022-12-26T07:36:06.754Z,100767.69
2022-12-26T07:40:18.446Z,100748.16
2022-12-26T07:44:32.216Z,100753.50
2022-12-26T07:48:44.101Z,100745.91
2022-12-26T07:52:55.777Z,100743.63
2022-12-26T07:57:46.289Z,100709.50
2022-12-26T08:01:41.625Z,100728.44
2022-12-26T08:05:53.443Z,100729.47
2022-12-26T08:10:05.513Z,100736.00
2022-12-26T08:14:17.687Z,100758.00
2022-12-26T08:18:29.377Z,100735.94
2022-12-26T08:22:41.021Z,100747.00
2022-12-26T08:26:52.727Z,100749.38
2022-12-26T08:31:09.114Z,100756.84
2022-12-26T08:35:20.770Z,100764.03
2022-12-26T08:39:32.449Z,100741.25
2022-12-26T08:44:25.323Z,100736.50
2022-12-26T08:48:16.132Z,100736.56
2022-12-26T08:52:27.811Z,100733.63
2022-12-26T08:56:39.740Z,100736.16
2022-12-26T09:00:55.247Z,100737.75
2022-12-26T09:05:07.778Z,100738.19
2022-12-26T09:09:19.432Z,100764.00
2022-12-26T09:13:32.222Z,100757.28
2022-12-26T09:17:43.909Z,100758.13
2022-12-26T09:22:15.544Z,100764.81
2022-12-26T09:26:29.490Z,100771.25
2022-12-26T09:30:41.209Z,100778.84
2022-12-26T09:34:52.871Z,100788.78
2022-12-26T09:39:05.500Z,100788.50
2022-12-26T09:43:26.201Z,100817.22
2022-12-26T09:47:57.547Z,100788.69
2022-12-26T09:52:14.913Z,100806.44
2022-12-26T10:01:09.695Z,100810.88
2022-12-26T10:05:25.199Z,100842.06
2022-12-26T10:09:52.078Z,100879.28
2022-12-26T10:14:23.939Z,100878.75
2022-12-26T10:18:51.001Z,100873.25
2022-12-26T10:23:34.415Z,100887.84
2022-12-26T10:27:49.090Z,100907.69
2022-12-26T10:32:05.770Z,100907.88
2022-12-26T10:36:37.308Z,100905.78
2022-12-26T10:40:53.345Z,100916.34
2022-12-26T10:45:18.408Z,100924.78
2022-12-26T10:49:29.957Z,100936.56
2022-12-26T10:53:48.230Z,100950.66
2022-12-26T10:58:05.546Z,100966.81
2022-12-26T11:02:27.778Z,100972.59
2022-12-26T11:06:43.717Z,100976.41
2022-12-26T11:11:15.853Z,100975.81
2022-12-26T11:15:46.710Z,100995.38
2022-12-26T11:20:16.376Z,101007.53
2022-12-26T11:24:27.939Z,101003.44
2022-12-26T11:28:39.417Z,101015.16
2022-12-26T11:33:11.719Z,101008.78
2022-12-26T11:37:29.746Z,101021.56
2022-12-26T11:41:43.992Z,101033.28
2022-12-26T11:45:55.912Z,101042.16
2022-12-26T11:50:12.146Z,101038.03
2022-12-26T11:54:34.399Z,101054.75
2022-12-26T11:58:45.970Z,101038.25
2022-12-26T12:02:57.641Z,101029.97
2022-12-26T12:07:51.900Z,101058.03
2022-12-26T12:12:26.822Z,101055.53
2022-12-26T12:16:51.994Z,101064.19
2022-12-26T12:21:25.416Z,101047.94
2022-12-26T12:26:10.547Z,101055.75
2022-12-26T12:30:40.056Z,101060.47
2022-12-26T12:35:00.919Z,101075.09
2022-12-26T12:39:20.304Z,101074.66
2022-12-26T12:44:01.015Z,101060.81
2022-12-26T12:48:46.035Z,101090.28
2022-12-26T12:54:11.644Z,101089.28
2022-12-26T12:58:47.458Z,101097.31
2022-12-26T13:02:58.929Z,101097.94
2022-12-26T13:07:37.017Z,101106.78
2022-12-26T13:12:06.561Z,101096.00
2022-12-26T13:16:23.014Z,101101.13
2022-12-26T13:20:42.308Z,101117.53
2022-12-26T13:25:01.283Z,101107.16
2022-12-26T13:29:28.036Z,101126.34
2022-12-26T13:33:42.539Z,101127.31
2022-12-26T13:37:57.728Z,101095.88
2022-12-26T13:42:28.112Z,101137.94
2022-12-26T13:46:44.400Z,101141.25
2022-12-26T13:51:05.376Z,101150.63
2022-12-26T13:55:16.885Z,101154.75
2022-12-26T13:59:35.834Z,101155.03
2022-12-26T14:04:32.069Z,101165.16
2022-12-26T14:09:02.298Z,101174.13
2022-12-26T14:13:35.441Z,101183.34
2022-12-26T14:18:22.445Z,101197.84
2022-12-26T14:22:33.983Z,101195.31
2022-12-26T14:26:57.662Z,101199.94
2022-12-26T14:31:43.474Z,101205.41
2022-12-26T14:36:26.875Z,101200.75
2022-12-26T14:41:03.872Z,101213.22
2022-12-26T14:45:27.583Z,101221.13
2022-12-26T14:49:41.351Z,101215.66
2022-12-26T14:54:35.084Z,101227.25
2022-12-26T14:58:53.978Z,101229.66
2022-12-26T15:03:05.533Z,101248.63
2022-12-26T15:07:35.946Z,101255.22
2022-12-26T15:12:12.764Z,101269.59
2022-12-26T15:16:37.327Z,101252.13
2022-12-26T15:21:22.249Z,101280.94
2022-12-26T15:25:42.903Z,101286.09
2022-12-26T15:30:00.656Z,101281.94
2022-12-26T15:34:27.807Z,101280.94
2022-12-26T15:39:01.690Z,101293.81
2022-12-26T15:43:29.215Z,101304.91
2022-12-26T15:47:52.476Z,101323.59
2022-12-26T15:52:25.550Z,101306.59
2022-12-26T15:56:50.227Z,101303.16
2022-12-26T16:01:02.179Z,101321.16
2022-12-26T16:05:28.102Z,101343.63
2022-12-26T16:09:47.875Z,101336.25
2022-12-26T16:14:02.067Z,101341.81
2022-12-26T16:18:15.922Z,101351.34
2022-12-26T16:22:44.129Z,101338.06
2022-12-26T16:27:01.597Z,101355.06
2022-12-26T16:31:20.919Z,101358.94
2022-12-26T16:35:36.377Z,101360.81
2022-12-26T16:40:22.189Z,101368.63
2022-12-26T16:44:41.158Z,101352.91
2022-12-26T16:49:01.434Z,101385.69
2022-12-26T16:53:18.936Z,101371.94
2022-12-26T16:57:31.713Z,101384.25
2022-12-26T17:01:56.092Z,101377.97
2022-12-26T17:06:13.525Z,101388.59
2022-12-26T17:10:29.721Z,101400.91
2022-12-26T17:14:45.935Z,101391.31
2022-12-26T17:19:11.326Z,101427.03
2022-12-26T17:23:38.965Z,101418.72
2022-12-26T17:28:09.158Z,101430.03
2022-12-26T17:32:30.158Z,101429.22
2022-12-26T17:41:16.524Z,101434.72
2022-12-26T17:45:28.281Z,101421.88
2022-12-26T17:49:40.026Z,101405.75
2022-12-26T17:53:51.992Z,101444.00
2022-12-26T17:58:03.739Z,101448.13
2022-12-26T18:02:15.678Z,101425.69
2022-12-26T18:06:27.748Z,101411.69
2022-12-26T18:10:39.548Z,101430.97
2022-12-26T18:14:53.542Z,101437.78
2022-12-26T18:19:16.696Z,101464.03
2022-12-26T18:23:28.424Z,101452.06
2022-12-26T18:27:40.215Z,101466.81
2022-12-26T18:31:51.996Z,101476.28
2022-12-26T18:36:07.639Z,101460.81
2022-12-26T18:40:38.079Z,101482.06
2022-12-26T18:44:49.842Z,101497.19
2022-12-26T18:49:01.603Z,101509.34
2022-12-26T18:53:13.364Z,101526.66
2022-12-26T18:57:25.091Z,101527.91
2022-12-26T19:01:36.980Z,101537.25
2022-12-26T19:05:48.782Z,101527.28
2022-12-26T19:10:01.087Z,101537.63
2022-12-26T19:14:21.201Z,101532.31
2022-12-26T19:18:32.961Z,101559.75
2022-12-26T19:22:45.146Z,101563.25
2022-12-26T19:26:56.792Z,101562.72
2022-12-26T19:31:10.724Z,101551.06
2022-12-26T19:35:22.599Z,101575.66
2022-12-26T19:39:34.702Z,101577.66
2022-12-26T19:43:46.436Z,101565.66
2022-12-26T19:47:58.539Z,101574.53
2022-12-26T19:52:36.589Z,101599.69
2022-12-26T19:56:48.311Z,101581.53
2022-12-26T20:01:17.083Z,101577.22
2022-12-26T20:05:29.123Z,101578.22
2022-12-26T20:09:40.921Z,101574.19
2022-12-26T20:13:52.726Z,101588.81
2022-12-26T20:18:04.594Z,101596.47
2022-12-26T20:22:16.327Z,101570.50
2022-12-26T20:26:28.874Z,101590.16
2022-12-26T20:30:40.802Z,101594.00
2022-12-26T20:34:52.621Z,101593.16
2022-12-26T20:39:07.730Z,101597.47
2022-12-26T20:43:20.619Z,101590.28
2022-12-26T20:47:32.303Z,101606.69
2022-12-26T20:51:44.769Z,101613.47
2022-12-26T20:55:59.315Z,101617.44
2022-12-26T21:00:11.845Z,101621.16
2022-12-26T21:04:23.559Z,101605.44
2022-12-26T21:08:36.646Z,101609.59
2022-12-26T21:12:48.368Z,101621.28
2022-12-26T21:17:00.176Z,101629.59
2022-12-26T21:21:18.235Z,101620.53
2022-12-26T21:25:30.078Z,101645.06
2022-12-26T21:29:42.425Z,101635.94
2022-12-26T21:34:02.169Z,101640.44
2022-12-26T21:38:13.961Z,101647.94
2022-12-26T21:42:25.646Z,101651.38
2022-12-26T21:46:37.329Z,101650.34
2022-12-26T21:50:49.167Z,101643.84
2022-12-26T21:55:19.366Z,101650.06
2022-12-26T21:59:49.805Z,101669.16
2022-12-26T22:04:19.639Z,101670.44
2022-12-26T22:08:31.411Z,101649.78
2022-12-26T22:12:58.147Z,101679.91
2022-12-26T22:17:09.993Z,101673.00
2022-12-26T22:21:23.494Z,101683.00
2022-12-26T22:25:35.145Z,101699.06
2022-12-26T22:29:46.811Z,101698.44
2022-12-26T22:34:12.300Z,101706.41
2022-12-26T22:38:24.030Z,101703.41
2022-12-26T22:42:35.755Z,101719.00
2022-12-26T22:46:47.405Z,101684.81
2022-12-26T22:50:59.275Z,101698.31
2022-12-26T22:55:12.438Z,101700.28
2022-12-26T22:59:57.891Z,101701.94
2022-12-26T23:03:55.878Z,101704.06
2022-12-26T23:08:08.150Z,101705.41
2022-12-26T23:12:38.804Z,101726.75
2022-12-26T23:16:58.538Z,101727.72
2022-12-26T23:21:39.007Z,101746.84
2022-12-26T23:25:50.787Z,101725.53
2022-12-26T23:30:20.556Z,101724.38
2022-12-26T23:34:32.468Z,101725.53
2022-12-26T23:38:44.181Z,101741.28
2022-12-26T23:42:55.901Z,101733.63
2022-12-26T23:47:08.657Z,101747.72
2022-12-26T23:51:20.438Z,101725.19
2022-12-26T23:55:32.312Z,101738.78
2022-12-26T23:59:44.103Z,101737.03
